createdAt,value
2023-02-13T00:00:29.022Z,19.00
2023-02-13T00:03:32.212Z,18.67
2023-02-13T00:06:35.572Z,18.87
2023-02-13T00:09:38.900Z,16.43
2023-02-13T00:12:42.321Z,16.87
2023-02-13T00:15:57.364Z,14.30
2023-02-13T00:19:00.567Z,14.17
2023-02-13T00:22:03.812Z,12.43
2023-02-13T00:25:08.375Z,11.80
2023-02-13T00:28:11.497Z,10.63
2023-02-13T00:31:18.365Z,10.40
2023-02-13T00:34:22.260Z,10.37
2023-02-13T00:37:25.669Z,9.93
2023-02-13T00:40:28.857Z,10.37
2023-02-13T00:43:32.243Z,10.63
2023-02-13T00:46:46.326Z,10.17
2023-02-13T00:49:49.490Z,9.20
2023-02-13T00:52:52.506Z,8.57
2023-02-13T00:55:56.084Z,8.60
2023-02-13T00:58:59.214Z,7.13
2023-02-13T01:02:03.873Z,7.07
2023-02-13T01:05:07.515Z,7.23
2023-02-13T01:08:11.564Z,6.77
2023-02-13T01:11:14.964Z,6.73
2023-02-13T01:14:18.388Z,6.67
2023-02-13T01:17:22.860Z,6.07
2023-02-13T01:20:26.780Z,5.67
2023-02-13T01:23:34.014Z,5.37
2023-02-13T01:26:37.343Z,5.40
2023-02-13T01:29:40.670Z,5.27
2023-02-13T01:32:46.923Z,5.50
2023-02-13T01:35:50.248Z,5.30
2023-02-13T01:38:55.905Z,5.13
2023-02-13T01:41:59.136Z,5.20
2023-02-13T01:45:04.960Z,5.10
2023-02-13T01:48:15.189Z,5.80
2023-02-13T01:51:22.372Z,5.10
2023-02-13T01:54:31.345Z,5.63
2023-02-13T01:57:35.134Z,5.40
2023-02-13T02:00:39.879Z,5.10
2023-02-13T02:03:48.911Z,5.20
2023-02-13T02:06:55.907Z,5.77
2023-02-13T02:10:03.989Z,5.63
2023-02-13T02:13:12.561Z,6.10
2023-02-13T02:16:15.676Z,6.70
2023-02-13T02:19:43.183Z,6.87
2023-02-13T02:32:00.983Z,6.20
2023-02-13T02:35:19.260Z,6.73
2023-02-13T02:38:37.692Z,6.60
2023-02-13T02:41:56.122Z,6.60
2023-02-13T02:45:11.016Z,7.00
2023-02-13T02:54:40.571Z,7.70
2023-02-13T02:58:05.205Z,7.30
2023-02-13T03:01:29.320Z,7.30
2023-02-13T03:04:52.283Z,7.53
2023-02-13T03:07:54.553Z,7.63
2023-02-13T03:27:39.238Z,9.40
2023-02-13T03:30:54.119Z,9.03
2023-02-13T03:34:00.866Z,10.00
2023-02-13T03:37:25.220Z,7.90
2023-02-13T03:40:37.886Z,9.67
2023-02-13T03:52:10.783Z,9.80
2023-02-13T03:55:33.423Z,10.00
2023-02-13T03:58:57.016Z,10.40
2023-02-13T04:02:06.032Z,10.37
2023-02-13T04:05:14.727Z,10.00
2023-02-13T04:14:46.254Z,9.40
2023-02-13T04:17:52.477Z,8.70
2023-02-13T04:20:54.569Z,9.70
2023-02-13T04:23:58.720Z,10.13
2023-02-13T04:27:00.609Z,9.37
2023-02-13T04:33:36.765Z,10.07
2023-02-13T04:36:40.821Z,10.27
2023-02-13T04:39:44.836Z,10.73
2023-02-13T04:42:48.590Z,10.97
2023-02-13T04:45:53.478Z,10.20
2023-02-13T04:48:56.184Z,12.20
2023-02-13T05:08:03.941Z,9.77
2023-02-13T05:11:07.585Z,9.80
2023-02-13T05:14:11.146Z,9.63
2023-02-13T05:17:13.213Z,9.40
2023-02-13T05:20:16.159Z,10.17
2023-02-13T05:29:53.622Z,9.67
2023-02-13T05:32:55.703Z,9.50
2023-02-13T05:35:57.698Z,9.33
2023-02-13T05:38:59.996Z,8.97
2023-02-13T05:42:04.133Z,9.00
2023-02-13T05:49:31.315Z,9.17
2023-02-13T05:52:33.342Z,9.07
2023-02-13T05:55:35.137Z,8.93
2023-02-13T05:58:37.064Z,8.60
2023-02-13T06:01:38.801Z,8.30
2023-02-13T06:09:11.334Z,8.60
2023-02-13T06:12:13.054Z,7.83
2023-02-13T06:15:14.993Z,7.67
2023-02-13T06:18:16.849Z,7.90
2023-02-13T06:21:18.617Z,7.87
2023-02-13T06:24:20.822Z,7.60
2023-02-13T06:33:16.331Z,7.17
2023-02-13T06:36:18.091Z,7.27
2023-02-13T06:39:19.754Z,7.00
2023-02-13T06:42:21.431Z,6.80
2023-02-13T06:45:23.201Z,7.03
2023-02-13T06:48:28.016Z,7.27
2023-02-13T06:56:48.632Z,7.00
2023-02-13T06:59:50.350Z,7.80
2023-02-13T07:02:52.460Z,7.40
2023-02-13T07:05:54.166Z,7.80
2023-02-13T07:08:56.595Z,7.60
2023-02-13T07:18:39.013Z,7.70
2023-02-13T07:21:40.775Z,8.50
2023-02-13T07:24:42.360Z,8.10
2023-02-13T07:27:44.071Z,8.00
2023-02-13T07:30:48.351Z,8.47
2023-02-13T07:41:19.755Z,8.17
2023-02-13T07:44:21.394Z,8.40
2023-02-13T07:47:23.146Z,7.93
2023-02-13T07:50:24.947Z,7.40
2023-02-13T07:53:26.521Z,7.10
2023-02-13T07:56:28.938Z,7.40
2023-02-13T08:05:55.071Z,7.70
2023-02-13T08:09:11.778Z,7.63
2023-02-13T08:12:13.676Z,7.27
2023-02-13T08:15:15.888Z,8.17
2023-02-13T08:18:18.966Z,7.77
2023-02-13T08:21:26.779Z,7.97
2023-02-13T08:24:29.807Z,7.83
2023-02-13T08:27:33.216Z,7.00
2023-02-13T08:30:39.696Z,8.43
2023-02-13T08:33:42.720Z,7.60
2023-02-13T08:36:47.434Z,7.67
2023-02-13T08:39:50.389Z,7.63
2023-02-13T08:42:53.442Z,7.47
2023-02-13T08:45:59.957Z,7.50
2023-02-13T08:49:03.101Z,8.10
2023-02-13T08:52:07.449Z,7.47
2023-02-13T08:55:10.526Z,7.57
2023-02-13T08:58:13.486Z,7.83
2023-02-13T09:01:18.284Z,8.57
2023-02-13T09:04:21.611Z,7.97
2023-02-13T09:07:26.369Z,8.20
2023-02-13T09:10:29.664Z,8.67
2023-02-13T09:13:34.504Z,8.30
2023-02-13T09:16:37.794Z,8.20
2023-02-13T09:19:40.855Z,8.10
2023-02-13T09:22:45.539Z,8.57
2023-02-13T09:25:48.520Z,8.35
2023-02-13T09:28:51.592Z,7.97
2023-02-13T09:31:56.992Z,8.53
2023-02-13T09:35:00.489Z,8.43
2023-02-13T09:38:05.069Z,8.77
2023-02-13T09:41:12.423Z,8.93
2023-02-13T09:44:32.968Z,9.70
2023-02-13T09:47:38.202Z,9.47
2023-02-13T09:50:41.459Z,10.07
2023-02-13T09:53:50.878Z,9.03
2023-02-13T09:57:01.893Z,11.47
2023-02-13T10:00:13.726Z,10.60
2023-02-13T10:03:27.061Z,11.70
2023-02-13T10:06:33.657Z,10.20
2023-02-13T10:09:44.892Z,12.10
2023-02-13T10:13:01.174Z,13.13
2023-02-13T10:16:10.970Z,13.10
2023-02-13T10:19:24.912Z,12.67
2023-02-13T10:22:33.394Z,11.97
2023-02-13T10:25:47.450Z,12.50
2023-02-13T10:29:14.494Z,14.23
2023-02-13T10:32:20.773Z,13.37
2023-02-13T10:35:30.685Z,13.33
2023-02-13T10:38:36.732Z,12.27
2023-02-13T10:41:52.074Z,12.57
2023-02-13T10:45:10.905Z,12.07
2023-02-13T10:48:28.094Z,10.80
2023-02-13T10:51:36.951Z,11.37
2023-02-13T10:55:02.741Z,11.17
2023-02-13T10:58:16.774Z,11.17
2023-02-13T11:01:31.081Z,11.23
2023-02-13T11:04:34.262Z,12.50
2023-02-13T11:07:39.536Z,9.73
2023-02-13T11:10:42.619Z,11.20
2023-02-13T11:13:46.888Z,11.83
2023-02-13T11:16:57.118Z,12.53
2023-02-13T11:20:02.071Z,12.63
2023-02-13T11:23:28.773Z,12.27
2023-02-13T11:26:36.566Z,12.40
2023-02-13T11:29:54.465Z,12.80
2023-02-13T11:33:00.137Z,13.10
2023-02-13T11:36:07.855Z,14.17
2023-02-13T11:39:20.405Z,13.33
2023-02-13T11:42:29.308Z,13.47
2023-02-13T11:45:33.872Z,13.10
2023-02-13T11:48:37.035Z,13.13
2023-02-13T11:51:42.602Z,14.13
2023-02-13T11:54:47.175Z,14.17
2023-02-13T11:57:59.351Z,14.53
2023-02-13T12:01:28.337Z,14.70
2023-02-13T12:04:31.309Z,15.20
2023-02-13T12:07:34.798Z,14.53
2023-02-13T12:10:39.548Z,15.87
2023-02-13T12:13:46.329Z,16.57
2023-02-13T12:16:54.735Z,15.80
2023-02-13T12:19:58.272Z,15.87
2023-02-13T12:23:08.723Z,14.67
2023-02-13T12:26:22.867Z,15.23
2023-02-13T12:29:58.784Z,15.80
2023-02-13T12:33:17.804Z,14.93
2023-02-13T12:36:25.679Z,16.03
2023-02-13T12:39:34.256Z,16.07
2023-02-13T12:42:44.684Z,16.70
2023-02-13T12:45:53.837Z,14.80
2023-02-13T12:49:09.905Z,13.97
2023-02-13T12:52:37.938Z,15.17
2023-02-13T12:56:09.936Z,15.73
2023-02-13T12:59:22.390Z,14.83
2023-02-13T13:02:59.914Z,14.00
2023-02-13T13:06:19.571Z,14.20
2023-02-13T13:09:42.768Z,15.07
2023-02-13T13:12:52.461Z,13.87
2023-02-13T13:16:07.573Z,15.03
2023-02-13T13:19:19.291Z,15.53
2023-02-13T13:22:30.480Z,15.10
2023-02-13T13:25:39.097Z,15.10
2023-02-13T13:28:44.515Z,16.30
2023-02-13T13:31:53.938Z,16.37
2023-02-13T13:34:58.997Z,15.47
2023-02-13T13:38:14.575Z,14.97
2023-02-13T13:41:22.927Z,15.40
2023-02-13T13:44:47.721Z,15.53
2023-02-13T13:48:03.165Z,15.63
2023-02-13T13:51:08.326Z,16.00
2023-02-13T13:54:23.291Z,15.23
2023-02-13T13:57:27.309Z,15.07
2023-02-13T14:00:31.794Z,15.47
2023-02-13T14:03:38.408Z,16.37
2023-02-13T14:07:16.805Z,14.93
2023-02-13T14:10:59.131Z,15.00
2023-02-13T14:14:40.895Z,14.90
2023-02-13T14:17:54.608Z,15.77
2023-02-13T14:21:00.536Z,16.43
2023-02-13T14:24:13.183Z,16.23
2023-02-13T14:27:23.842Z,14.83
2023-02-13T14:30:34.384Z,15.57
2023-02-13T14:33:40.122Z,14.93
2023-02-13T14:36:46.448Z,15.93
2023-02-13T14:40:12.322Z,14.10
2023-02-13T14:43:32.184Z,14.40
2023-02-13T14:46:41.642Z,15.50
2023-02-13T14:49:46.864Z,14.40
2023-02-13T14:52:51.868Z,15.13
2023-02-13T14:56:03.421Z,15.70
2023-02-13T14:59:13.510Z,16.30
2023-02-13T15:02:24.773Z,15.83
2023-02-13T15:05:33.971Z,14.97
2023-02-13T15:08:44.359Z,15.57
2023-02-13T15:11:47.630Z,15.07
2023-02-13T15:14:50.796Z,16.30
2023-02-13T15:18:01.324Z,15.53
2023-02-13T15:21:04.944Z,14.77
2023-02-13T15:24:15.604Z,15.63
2023-02-13T15:27:21.586Z,17.20
2023-02-13T15:30:26.816Z,14.53
2023-02-13T15:33:36.414Z,15.60
2023-02-13T15:36:42.674Z,14.67
2023-02-13T15:39:45.810Z,15.23
2023-02-13T15:42:49.324Z,16.40
2023-02-13T15:45:54.816Z,16.40
2023-02-13T15:49:01.395Z,15.87
2023-02-13T15:52:06.861Z,16.97
2023-02-13T15:55:20.758Z,13.70
2023-02-13T15:58:29.538Z,16.07
2023-02-13T16:01:33.483Z,14.93
2023-02-13T16:04:39.203Z,15.83
2023-02-13T16:07:50.647Z,15.73
2023-02-13T16:11:20.338Z,14.20
2023-02-13T16:14:27.840Z,15.83
2023-02-13T16:17:34.080Z,15.70
2023-02-13T16:20:39.118Z,15.70
2023-02-13T16:23:44.690Z,15.43
2023-02-13T16:26:48.223Z,16.30
2023-02-13T16:29:59.007Z,15.83
2023-02-13T16:33:20.328Z,16.97
2023-02-13T16:36:30.791Z,17.33
2023-02-13T16:39:34.634Z,16.67
2023-02-13T16:42:38.964Z,16.60
2023-02-13T16:45:42.268Z,16.33
2023-02-13T16:48:46.883Z,15.40
2023-02-13T16:51:57.112Z,15.20
2023-02-13T16:55:03.239Z,15.27
2023-02-13T16:58:07.297Z,16.63
2023-02-13T17:01:18.177Z,16.00
2023-02-13T17:04:23.375Z,16.93
2023-02-13T17:07:29.972Z,16.43
2023-02-13T17:10:35.077Z,16.13
2023-02-13T17:13:38.137Z,16.83
2023-02-13T17:16:41.809Z,16.13
2023-02-13T17:19:45.413Z,16.67
2023-02-13T17:22:51.781Z,17.03
2023-02-13T17:25:56.691Z,16.27
2023-02-13T17:28:59.798Z,17.07
2023-02-13T17:32:04.464Z,15.77
2023-02-13T17:35:07.909Z,17.03
2023-02-13T17:38:27.326Z,16.83
2023-02-13T17:41:33.445Z,17.43
2023-02-13T17:44:36.516Z,17.93
2023-02-13T17:47:39.818Z,15.80
2023-02-13T17:50:43.405Z,18.17
2023-02-13T17:53:48.251Z,17.60
2023-02-13T17:56:52.766Z,17.23
2023-02-13T17:59:57.023Z,15.17
2023-02-13T18:03:03.368Z,16.50
2023-02-13T18:06:09.361Z,17.23
2023-02-13T18:09:14.360Z,17.77
2023-02-13T18:12:22.942Z,18.10
2023-02-13T18:15:26.531Z,17.60
2023-02-13T18:18:30.228Z,16.30
2023-02-13T18:21:36.661Z,17.60
2023-02-13T18:24:44.068Z,17.73
2023-02-13T18:27:48.076Z,16.73
2023-02-13T18:30:52.310Z,17.47
2023-02-13T18:34:09.458Z,17.70
2023-02-13T18:37:28.996Z,17.70
2023-02-13T18:40:36.947Z,17.37
2023-02-13T18:43:41.045Z,18.17
2023-02-13T18:46:46.554Z,17.37
2023-02-13T18:49:52.941Z,17.87
2023-02-13T18:52:56.312Z,18.03
2023-02-13T18:56:07.048Z,17.50
2023-02-13T18:59:10.897Z,17.43
2023-02-13T19:02:14.602Z,18.77
2023-02-13T19:05:18.253Z,16.67
2023-02-13T19:08:21.569Z,18.13
2023-02-13T19:11:28.910Z,19.23
2023-02-13T19:14:32.200Z,18.80
2023-02-13T19:17:36.536Z,19.50
2023-02-13T19:20:41.496Z,18.77
2023-02-13T19:23:46.839Z,19.40
2023-02-13T19:26:51.461Z,19.27
2023-02-13T19:29:54.786Z,18.97
2023-02-13T19:33:08.737Z,18.47
2023-02-13T19:36:14.121Z,18.97
2023-02-13T19:39:17.914Z,19.83
2023-02-13T19:42:22.915Z,20.90
2023-02-13T19:45:26.343Z,19.17
2023-02-13T19:48:29.695Z,19.17
2023-02-13T19:51:34.551Z,19.40
2023-02-13T19:54:40.255Z,18.70
2023-02-13T20:00:05.231Z,19.53
2023-02-13T20:01:54.843Z,18.60
2023-02-13T20:04:59.594Z,19.30
2023-02-13T20:08:05.720Z,19.60
2023-02-13T20:11:10.646Z,19.50
2023-02-13T20:14:16.903Z,19.90
2023-02-13T20:17:22.858Z,20.43
2023-02-13T20:20:28.010Z,20.10
2023-02-13T20:23:33.355Z,20.07
2023-02-13T20:26:38.730Z,21.33
2023-02-13T20:29:45.895Z,20.57
2023-02-13T20:32:49.611Z,21.03
2023-02-13T20:35:53.170Z,21.33
2023-02-13T20:39:01.905Z,22.10
2023-02-13T20:42:07.787Z,20.07
2023-02-13T20:45:14.284Z,21.87
2023-02-13T20:48:18.426Z,21.03
2023-02-13T20:51:23.197Z,20.50
2023-02-13T20:54:31.697Z,20.93
2023-02-13T20:57:39.728Z,20.23
2023-02-13T21:00:50.601Z,21.90
2023-02-13T21:04:00.225Z,21.93
2023-02-13T21:07:11.351Z,20.70
2023-02-13T21:10:17.678Z,21.83
2023-02-13T21:13:25.006Z,21.87
2023-02-13T21:16:32.165Z,21.50
2023-02-13T21:19:35.671Z,20.90
2023-02-13T21:22:39.181Z,20.67
2023-02-13T21:25:42.912Z,19.70
2023-02-13T21:28:48.717Z,20.37
2023-02-13T21:31:54.180Z,21.20
2023-02-13T21:34:57.835Z,18.83
2023-02-13T21:38:01.450Z,19.23
2023-02-13T21:41:09.167Z,20.37
2023-02-13T21:44:14.424Z,21.17
2023-02-13T21:47:19.896Z,20.70
2023-02-13T21:50:26.511Z,20.70
2023-02-13T21:53:35.090Z,19.60
2023-02-13T21:56:40.773Z,19.80
2023-02-13T21:59:44.822Z,21.57
2023-02-13T22:02:50.478Z,20.87
2023-02-13T22:05:58.717Z,19.37
2023-02-13T22:09:04.986Z,21.87
2023-02-13T22:12:08.628Z,21.57
2023-02-13T22:15:11.925Z,19.70
2023-02-13T22:18:17.421Z,20.47
2023-02-13T22:21:23.967Z,18.17
2023-02-13T22:24:27.942Z,19.13
2023-02-13T22:27:31.735Z,22.70
2023-02-13T22:30:37.602Z,22.00
2023-02-13T22:33:42.921Z,21.80
2023-02-13T22:36:48.721Z,21.93
2023-02-13T22:39:52.819Z,21.13
2023-02-13T22:42:56.298Z,21.63
2023-02-13T22:46:04.613Z,21.53
2023-02-13T22:49:09.765Z,21.57
2023-02-13T22:52:13.552Z,20.77
2023-02-13T22:55:19.527Z,19.67
2023-02-13T22:58:23.269Z,21.30
2023-02-13T23:01:29.234Z,21.50
2023-02-13T23:04:34.426Z,21.23
2023-02-13T23:07:38.264Z,18.80
2023-02-13T23:10:43.660Z,21.23
2023-02-13T23:13:48.331Z,19.87
2023-02-13T23:17:08.903Z,19.87
2023-02-13T23:20:15.043Z,21.13
2023-02-13T23:23:20.085Z,18.57
2023-02-13T23:26:23.882Z,20.07
2023-02-13T23:29:27.998Z,20.70
2023-02-13T23:32:31.445Z,19.60
2023-02-13T23:35:36.263Z,19.07
2023-02-13T23:38:39.733Z,20.87
2023-02-13T23:41:43.224Z,20.03
2023-02-13T23:44:46.526Z,20.17
2023-02-13T23:47:49.965Z,19.60
2023-02-13T23:50:54.828Z,18.93
2023-02-13T23:53:58.102Z,19.73
2023-02-13T23:57:02.128Z,16.93
